createdAt,value
2018-12-29T00:03:19.581Z,5.25
2018-12-29T00:06:07.277Z,5.27
2018-12-29T00:08:35.843Z,5.26
2018-12-29T00:11:04.152Z,5.25
2018-12-29T00:13:32.547Z,5.24
2018-12-29T00:18:48.177Z,5.24
2018-12-29T00:21:16.470Z,5.24
2018-12-29T00:24:04.241Z,5.21
2018-12-29T00:29:19.909Z,5.18
2018-12-29T00:31:48.216Z,5.19
2018-12-29T00:34:35.945Z,5.19
2018-12-29T00:37:04.241Z,5.17
2018-12-29T00:39:52.193Z,5.22
2018-12-29T00:42:20.511Z,5.24
2018-12-29T00:44:48.814Z,5.25
2018-12-29T00:47:17.142Z,5.26
2018-12-29T00:52:35.030Z,5.29
2018-12-29T00:55:03.322Z,5.33
2018-12-29T00:57:31.621Z,5.34
2018-12-29T01:02:53.963Z,5.37
2018-12-29T01:05:41.653Z,5.35
2018-12-29T01:10:57.289Z,5.27
2018-12-29T01:13:25.581Z,5.23
2018-12-29T01:15:54.262Z,5.23
2018-12-29T01:18:22.573Z,5.24
2018-12-29T01:20:50.864Z,5.27
2018-12-29T01:23:38.557Z,5.29
2018-12-29T01:26:06.848Z,5.28
2018-12-29T01:28:35.170Z,5.28
2018-12-29T01:31:22.846Z,5.31
2018-12-29T01:33:51.154Z,5.28
2018-12-29T01:36:19.468Z,5.27
2018-12-29T01:38:47.778Z,5.23
2018-12-29T01:41:16.065Z,5.20
2018-12-29T01:43:44.353Z,5.17
2018-12-29T01:46:32.041Z,5.20
2018-12-29T01:49:00.334Z,5.27
2018-12-29T01:51:28.651Z,5.30
2018-12-29T01:53:57.286Z,5.33
2018-12-29T01:56:25.610Z,5.32
2018-12-29T01:58:54.250Z,5.30
2018-12-29T02:01:22.550Z,5.33
2018-12-29T02:03:50.878Z,5.36
2018-12-29T02:06:19.479Z,5.39
2018-12-29T02:08:48.069Z,5.36
2018-12-29T02:11:16.374Z,5.34
2018-12-29T02:13:44.685Z,5.35
2018-12-29T02:16:12.986Z,5.38
2018-12-29T02:18:41.278Z,5.41
2018-12-29T02:21:09.850Z,5.42
2018-12-29T02:23:38.140Z,5.38
2018-12-29T02:26:06.463Z,5.39
2018-12-29T02:28:34.753Z,5.40
2018-12-29T02:31:22.438Z,5.38
2018-12-29T02:36:59.943Z,5.40
2018-12-29T02:39:28.254Z,5.36
2018-12-29T02:41:56.563Z,5.34
2018-12-29T02:44:46.049Z,5.33
2018-12-29T02:47:33.490Z,5.37
2018-12-29T02:50:01.794Z,5.37
2018-12-29T02:52:30.088Z,5.36
2018-12-29T02:54:58.721Z,5.38
2018-12-29T02:57:27.026Z,5.35
2018-12-29T02:59:55.336Z,5.35
2018-12-29T03:02:43.009Z,5.37
2018-12-29T03:05:11.319Z,5.42
2018-12-29T03:07:39.972Z,5.37
2018-12-29T03:10:08.265Z,5.36
2018-12-29T03:12:36.577Z,5.38
2018-12-29T03:15:44.912Z,5.34
2018-12-29T03:18:13.239Z,5.30
2018-12-29T03:20:41.526Z,5.28
2018-12-29T03:23:09.863Z,5.21
2018-12-29T03:25:38.161Z,5.26
2018-12-29T03:28:06.466Z,5.27
2018-12-29T03:30:34.784Z,5.28
2018-12-29T03:33:22.471Z,5.30
2018-12-29T03:36:09.896Z,5.33
2018-12-29T03:38:38.252Z,5.33
2018-12-29T03:41:25.943Z,5.29
2018-12-29T03:43:54.247Z,5.30
2018-12-29T03:46:22.538Z,5.34
2018-12-29T03:48:50.859Z,5.36
2018-12-29T03:51:19.151Z,5.34
2018-12-29T03:53:47.471Z,5.27
2018-12-29T03:56:15.763Z,5.18
2018-12-29T03:58:44.415Z,5.23
2018-12-29T04:01:32.078Z,5.23
2018-12-29T04:04:00.399Z,5.19
2018-12-29T04:12:49.463Z,5.28
2018-12-29T04:17:51.246Z,5.25
2018-12-29T04:20:38.927Z,5.25
2018-12-29T04:23:07.247Z,5.25
2018-12-29T04:25:35.885Z,5.24
2018-12-29T04:28:04.189Z,5.24
2018-12-29T04:30:51.633Z,5.29
2018-12-29T04:36:07.268Z,5.28
2018-12-29T04:38:35.582Z,5.22
2018-12-29T04:41:23.522Z,5.23
2018-12-29T04:44:11.197Z,5.25
2018-12-29T04:46:39.517Z,5.26
2018-12-29T04:49:07.810Z,5.27
2018-12-29T04:51:36.122Z,5.30
2018-12-29T04:54:04.437Z,5.32
2018-12-29T04:56:32.733Z,5.35
2018-12-29T04:59:01.041Z,5.37
2018-12-29T05:01:29.338Z,5.41
2018-12-29T05:03:57.711Z,5.44
2018-12-29T05:06:45.373Z,5.46
2018-12-29T05:09:13.971Z,5.41
2018-12-29T05:11:42.282Z,5.41
2018-12-29T05:14:10.591Z,5.44
2018-12-29T05:16:38.881Z,5.47
2018-12-29T05:19:07.174Z,5.41
2018-12-29T05:21:35.485Z,5.32
2018-12-29T05:24:03.780Z,5.28
2018-12-29T05:26:32.114Z,5.29
2018-12-29T05:29:19.770Z,5.28
2018-12-29T05:31:48.434Z,5.29
2018-12-29T05:34:16.737Z,5.34
2018-12-29T05:36:45.025Z,5.36
2018-12-29T05:39:13.347Z,5.37
2018-12-29T05:42:01.013Z,5.41
2018-12-29T05:44:29.670Z,5.39
2018-12-29T05:46:57.963Z,5.43
2018-12-29T05:49:26.276Z,5.43
2018-12-29T05:51:54.569Z,5.43
2018-12-29T05:54:22.873Z,5.38
2018-12-29T05:56:51.191Z,5.40
2018-12-29T05:59:19.478Z,5.42
2018-12-29T06:01:48.119Z,5.41
2018-12-29T06:04:16.408Z,5.47
2018-12-29T06:07:04.057Z,5.50
2018-12-29T06:09:32.352Z,5.47
2018-12-29T06:12:00.638Z,5.44
2018-12-29T06:14:28.942Z,5.42
2018-12-29T06:16:57.236Z,5.44
2018-12-29T06:19:25.560Z,5.48
2018-12-29T06:21:53.866Z,5.50
2018-12-29T06:24:22.155Z,5.50
2018-12-29T06:26:50.474Z,5.49
2018-12-29T06:29:18.779Z,5.49
2018-12-29T06:32:06.478Z,5.51
2018-12-29T06:34:34.768Z,5.54
2018-12-29T06:37:03.087Z,5.54
2018-12-29T06:39:31.391Z,5.53
2018-12-29T06:42:18.829Z,5.56
2018-12-29T06:44:47.132Z,5.56
2018-12-29T06:47:15.441Z,5.54
2018-12-29T06:49:43.752Z,5.61
2018-12-29T06:52:12.058Z,5.65
2018-12-29T06:54:40.377Z,5.71
2018-12-29T06:57:08.670Z,5.71
2018-12-29T06:59:36.983Z,5.72
2018-12-29T07:02:24.457Z,5.69
2018-12-29T07:04:53.050Z,5.63
2018-12-29T07:07:40.975Z,5.59
2018-12-29T07:10:09.566Z,5.59
2018-12-29T07:12:57.243Z,5.64
2018-12-29T07:15:25.887Z,5.71
2018-12-29T07:18:13.557Z,5.76
2018-12-29T07:20:41.865Z,5.80
2018-12-29T07:23:10.172Z,5.77
2018-12-29T07:25:38.462Z,5.70
2018-12-29T07:28:07.029Z,5.71
2018-12-29T07:30:35.611Z,5.74
2018-12-29T07:35:38.327Z,5.77
2018-12-29T07:38:06.633Z,5.76
2018-12-29T07:40:54.299Z,5.80
2018-12-29T07:43:22.903Z,5.81
2018-12-29T07:45:51.203Z,5.84
2018-12-29T07:48:19.513Z,5.89
2018-12-29T07:50:47.828Z,5.95
2018-12-29T07:53:16.146Z,5.98
2018-12-29T07:55:44.433Z,6.00
2018-12-29T07:58:12.720Z,5.99
2018-12-29T08:00:41.041Z,5.97
2018-12-29T08:03:28.463Z,5.95
2018-12-29T08:05:56.769Z,5.97
2018-12-29T08:08:44.180Z,6.00
2018-12-29T08:11:12.497Z,6.02
2018-12-29T08:13:40.810Z,6.06
2018-12-29T08:16:28.502Z,6.06
2018-12-29T08:18:56.810Z,6.07
2018-12-29T08:21:25.410Z,6.08
2018-12-29T08:23:53.736Z,6.13
2018-12-29T08:26:22.042Z,6.16
2018-12-29T08:28:50.330Z,6.21
2018-12-29T08:33:52.605Z,6.27
2018-12-29T08:36:40.053Z,6.29
2018-12-29T08:39:08.354Z,6.30
2018-12-29T08:41:57.265Z,6.28
2018-12-29T08:44:25.570Z,6.28
2018-12-29T08:47:13.266Z,6.27
2018-12-29T08:52:28.900Z,6.36
2018-12-29T08:54:57.206Z,6.40
2018-12-29T09:00:12.832Z,6.42
2018-12-29T09:02:41.129Z,6.46
2018-12-29T09:05:28.814Z,6.45
2018-12-29T09:07:57.102Z,6.50
2018-12-29T09:10:25.425Z,6.51
2018-12-29T09:13:13.085Z,6.51
2018-12-29T09:15:41.644Z,6.48
2018-12-29T09:18:09.946Z,6.46
2018-12-29T09:20:38.259Z,6.47
2018-12-29T09:23:06.642Z,6.46
2018-12-29T09:25:34.941Z,6.48
2018-12-29T09:28:03.260Z,6.52
2018-12-29T09:30:31.567Z,6.54
2018-12-29T09:33:19.334Z,6.58
2018-12-29T09:35:47.636Z,6.53
2018-12-29T09:38:35.339Z,6.56
2018-12-29T09:41:03.633Z,6.61
2018-12-29T09:43:32.215Z,6.67
2018-12-29T09:46:00.796Z,6.70
2018-12-29T09:48:48.474Z,6.72
2018-12-29T09:51:16.790Z,6.75
2018-12-29T09:53:45.091Z,6.77
2018-12-29T09:56:13.396Z,6.79
2018-12-29T09:58:41.768Z,6.78
2018-12-29T10:01:10.429Z,6.81
2018-12-29T10:03:57.836Z,6.84
2018-12-29T10:06:26.148Z,6.89
2018-12-29T10:08:54.453Z,6.89
2018-12-29T10:11:23.085Z,6.91
2018-12-29T10:13:51.394Z,6.93
2018-12-29T10:16:19.944Z,6.96
2018-12-29T10:18:48.252Z,7.01
2018-12-29T10:21:16.544Z,7.05
2018-12-29T10:23:44.862Z,7.10
2018-12-29T10:26:13.165Z,7.16
2018-12-29T10:28:41.736Z,7.17
2018-12-29T10:31:10.046Z,7.24
2018-12-29T10:33:38.336Z,7.32
2018-12-29T10:36:26.035Z,7.32
2018-12-29T10:38:54.329Z,7.35
2018-12-29T10:41:41.763Z,7.34
2018-12-29T10:44:10.305Z,7.32
2018-12-29T10:49:31.644Z,7.48
2018-12-29T10:51:59.945Z,7.55
2018-12-29T10:54:28.272Z,7.56
2018-12-29T10:56:56.573Z,7.52
2018-12-29T11:01:58.360Z,7.67
2018-12-29T11:04:26.649Z,7.73
2018-12-29T11:06:55.304Z,7.78
2018-12-29T11:09:23.638Z,7.83
2018-12-29T11:11:51.954Z,7.81
2018-12-29T11:14:39.429Z,7.82
2018-12-29T11:17:08.026Z,7.79
2018-12-29T11:19:36.312Z,7.78
2018-12-29T11:24:51.938Z,7.74
2018-12-29T11:27:20.241Z,7.76
2018-12-29T11:29:48.915Z,7.77
2018-12-29T11:32:17.224Z,7.79
2018-12-29T11:35:04.913Z,7.88
2018-12-29T11:37:52.839Z,7.92
2018-12-29T11:40:40.481Z,7.92
2018-12-29T11:43:08.783Z,7.90
2018-12-29T11:45:37.087Z,7.87
2018-12-29T11:48:05.720Z,7.86
2018-12-29T11:50:34.033Z,7.89
2018-12-29T11:53:02.323Z,7.92
2018-12-29T11:55:30.621Z,7.91
2018-12-29T11:58:00.978Z,7.85
2018-12-29T12:00:48.648Z,7.83
2018-12-29T12:03:56.991Z,7.87
2018-12-29T12:06:25.281Z,7.84
2018-12-29T12:08:53.608Z,7.89
2018-12-29T12:11:22.161Z,7.89
2018-12-29T12:14:09.858Z,7.90
2018-12-29T12:19:27.161Z,7.85
2018-12-29T12:21:55.457Z,7.79
2018-12-29T12:27:11.083Z,7.79
2018-12-29T12:29:41.117Z,7.75
2018-12-29T12:32:09.454Z,7.82
2018-12-29T12:34:37.754Z,7.82
2018-12-29T12:37:06.061Z,7.84
2018-12-29T12:39:34.348Z,7.93
2018-12-29T12:42:02.638Z,7.97
2018-12-29T12:44:31.293Z,7.99
2018-12-29T12:46:59.597Z,8.02
2018-12-29T12:49:27.885Z,7.99
2018-12-29T12:51:56.211Z,7.98
2018-12-29T12:54:43.885Z,7.99
2018-12-29T12:57:12.376Z,7.99
2018-12-29T13:00:01.517Z,8.01
2018-12-29T13:02:30.102Z,7.99
2018-12-29T13:04:58.407Z,8.03
2018-12-29T13:07:26.692Z,8.00
2018-12-29T13:10:14.395Z,8.00
2018-12-29T13:12:42.702Z,7.96
2018-12-29T13:15:11.008Z,7.95
2018-12-29T13:17:39.298Z,7.94
2018-12-29T13:20:07.623Z,7.99
2018-12-29T13:22:35.917Z,7.98
2018-12-29T13:25:23.682Z,8.03
2018-12-29T13:28:11.591Z,8.05
2018-12-29T13:30:40.209Z,7.98
2018-12-29T13:33:27.643Z,7.94
2018-12-29T13:36:15.334Z,7.90
2018-12-29T13:38:43.635Z,7.91
2018-12-29T13:41:11.944Z,7.85
2018-12-29T13:46:27.576Z,7.86
2018-12-29T13:48:56.207Z,7.89
2018-12-29T13:51:24.504Z,7.90
2018-12-29T13:53:53.174Z,7.93
2018-12-29T13:56:40.610Z,7.99
2018-12-29T13:59:08.911Z,7.99
2018-12-29T14:01:37.558Z,7.95
2018-12-29T14:06:39.344Z,7.90
2018-12-29T14:09:07.670Z,7.87
2018-12-29T14:11:35.948Z,7.86
2018-12-29T14:14:04.239Z,7.85
2018-12-29T14:16:32.572Z,7.78
2018-12-29T14:19:00.872Z,7.78
2018-12-29T14:21:29.185Z,7.84
2018-12-29T14:26:44.813Z,7.89
2018-12-29T14:29:13.105Z,7.88
2018-12-29T14:32:01.109Z,7.87
2018-12-29T14:34:48.639Z,7.84
2018-12-29T14:37:16.937Z,7.83
2018-12-29T14:42:32.924Z,7.82
2018-12-29T14:45:20.853Z,7.90
2018-12-29T14:48:08.551Z,7.97
2018-12-29T14:50:37.173Z,7.92
2018-12-29T14:53:05.489Z,7.91
2018-12-29T14:55:33.799Z,7.88
2018-12-29T14:58:02.359Z,7.87
2018-12-29T15:00:51.516Z,7.85
2018-12-29T15:03:39.268Z,7.82
2018-12-29T15:06:09.296Z,7.77
2018-12-29T15:08:37.908Z,7.76
2018-12-29T15:11:06.242Z,7.72
2018-12-29T15:13:53.907Z,7.68
2018-12-29T15:16:43.657Z,7.68
2018-12-29T15:19:11.959Z,7.67
2018-12-29T15:21:40.263Z,7.63
2018-12-29T15:24:09.006Z,7.55
2018-12-29T15:26:38.585Z,7.53
2018-12-29T15:29:08.625Z,7.51
2018-12-29T15:34:24.266Z,7.50
2018-12-29T15:36:52.557Z,7.49
2018-12-29T15:39:22.580Z,7.40
2018-12-29T15:44:44.688Z,7.31
2018-12-29T15:47:13.007Z,7.28
2018-12-29T15:49:41.312Z,7.27
2018-12-29T15:52:29.002Z,7.27
2018-12-29T15:55:16.690Z,7.27
2018-12-29T15:57:44.993Z,7.26
2018-12-29T16:00:13.305Z,7.26
2018-12-29T16:03:02.208Z,7.27
2018-12-29T16:05:31.344Z,7.26
2018-12-29T16:10:33.988Z,7.22
2018-12-29T16:13:02.618Z,7.19
2018-12-29T16:15:30.950Z,7.17
2018-12-29T16:18:00.962Z,7.18
2018-12-29T16:20:53.234Z,7.23
2018-12-29T16:23:18.974Z,7.23
2018-12-29T16:25:49.084Z,7.26
2018-12-29T16:28:36.754Z,7.24
2018-12-29T16:31:06.784Z,7.17
2018-12-29T16:33:37.058Z,7.12
2018-12-29T16:36:07.364Z,7.08
2018-12-29T16:38:35.666Z,7.06
2018-12-29T16:43:53.016Z,7.05
2018-12-29T16:46:40.652Z,7.06
2018-12-29T16:49:28.103Z,7.07
2018-12-29T16:51:56.403Z,7.08
2018-12-29T16:57:12.293Z,7.04
2018-12-29T16:59:40.600Z,7.07
2018-12-29T17:04:42.598Z,7.12
2018-12-29T17:07:30.044Z,7.11
2018-12-29T17:10:17.709Z,7.15
2018-12-29T17:12:46.030Z,7.22
2018-12-29T17:15:16.043Z,7.27
2018-12-29T17:17:44.631Z,7.21
2018-12-29T17:22:46.710Z,7.27
2018-12-29T17:25:15.035Z,7.22
2018-12-29T17:27:43.588Z,7.25
2018-12-29T17:32:46.577Z,7.28
2018-12-29T17:38:08.300Z,7.27
2018-12-29T17:40:55.949Z,7.33
2018-12-29T17:46:30.939Z,7.36
2018-12-29T17:51:46.579Z,7.33
2018-12-29T17:54:15.189Z,7.35
2018-12-29T17:56:43.487Z,7.38
2018-12-29T17:59:13.530Z,7.41
2018-12-29T18:04:30.899Z,7.45
2018-12-29T18:06:59.503Z,7.45
2018-12-29T18:09:27.809Z,7.45
2018-12-29T18:12:22.437Z,7.48
2018-12-29T18:14:51.561Z,7.51
2018-12-29T18:17:19.858Z,7.55
2018-12-29T18:19:48.416Z,7.52
2018-12-29T18:25:48.787Z,7.64
2018-12-29T18:28:17.073Z,7.71
2018-12-29T18:31:04.734Z,7.76
2018-12-29T18:33:52.519Z,7.79
2018-12-29T18:36:41.877Z,7.80
2018-12-29T18:39:10.173Z,7.85
2018-12-29T18:41:57.882Z,7.87
2018-12-29T18:44:45.795Z,7.89
2018-12-29T18:47:14.114Z,7.93
2018-12-29T18:50:01.794Z,7.90
2018-12-29T18:52:30.088Z,7.88
2018-12-29T18:55:17.865Z,7.83
2018-12-29T18:57:47.890Z,7.83
2018-12-29T19:00:16.202Z,7.86
2018-12-29T19:02:44.506Z,7.85
2018-12-29T19:05:12.810Z,7.85
2018-12-29T19:07:41.101Z,7.86
2018-12-29T19:10:11.120Z,7.87
2018-12-29T19:12:58.556Z,7.89
2018-12-29T19:15:27.680Z,7.90
2018-12-29T19:17:56.881Z,7.95
2018-12-29T19:23:14.250Z,7.95
2018-12-29T19:25:42.556Z,7.97
2018-12-29T19:30:46.449Z,8.06
2018-12-29T19:35:50.666Z,8.11
2018-12-29T19:38:21.021Z,8.09
2018-12-29T19:40:51.036Z,8.10
2018-12-29T19:43:19.609Z,8.11
2018-12-29T19:46:07.573Z,8.15
2018-12-29T19:48:35.853Z,8.19
2018-12-29T19:51:30.208Z,8.23
2018-12-29T19:53:58.496Z,8.26
2018-12-29T19:56:46.192Z,8.29
2018-12-29T19:59:35.610Z,8.35
2018-12-29T20:05:10.591Z,8.44
2018-12-29T20:07:38.898Z,8.44
2018-12-29T20:10:47.239Z,8.45
2018-12-29T20:16:02.878Z,8.54
2018-12-29T20:18:50.558Z,8.62
2018-12-29T20:21:19.158Z,8.68
2018-12-29T20:23:47.467Z,8.70
2018-12-29T20:26:35.156Z,8.75
2018-12-29T20:29:22.829Z,8.76
2018-12-29T20:32:10.532Z,8.81
2018-12-29T20:34:38.821Z,8.80
2018-12-29T20:37:26.253Z,8.81
2018-12-29T20:39:54.554Z,8.79
2018-12-29T20:45:33.279Z,8.84
2018-12-29T20:48:21.019Z,8.88
2018-12-29T20:51:08.456Z,8.92
2018-12-29T20:53:36.749Z,8.91
2018-12-29T20:56:06.800Z,8.92
2018-12-29T21:01:24.140Z,8.86
2018-12-29T21:03:52.461Z,8.79
2018-12-29T21:06:22.489Z,8.73
2018-12-29T21:08:50.778Z,8.65
2018-12-29T21:14:31.528Z,8.64
2018-12-29T21:16:59.852Z,8.64
2018-12-29T21:19:28.140Z,8.65
2018-12-29T21:21:56.728Z,8.68
2018-12-29T21:24:44.408Z,8.58
2018-12-29T21:30:00.159Z,8.63
2018-12-29T21:32:30.077Z,8.64
2018-12-29T21:35:17.500Z,8.65
2018-12-29T21:40:33.143Z,8.61
2018-12-29T21:43:01.501Z,8.53
2018-12-29T21:48:17.120Z,8.48
2018-12-29T21:50:45.407Z,8.48
2018-12-29T21:53:13.708Z,8.44
2018-12-29T21:55:43.297Z,8.45
2018-12-29T21:58:12.035Z,8.45
2018-12-29T22:00:40.316Z,8.48
2018-12-29T22:03:10.352Z,8.46
2018-12-29T22:05:38.635Z,8.49
2018-12-29T22:08:26.307Z,8.45
2018-12-29T22:10:54.598Z,8.44
2018-12-29T22:16:12.007Z,8.41
2018-12-29T22:21:27.633Z,8.44
2018-12-29T22:23:55.914Z,8.48
2018-12-29T22:26:24.215Z,8.48
2018-12-29T22:31:42.358Z,8.50
2018-12-29T22:34:30.037Z,8.49
2018-12-29T22:36:58.344Z,8.47
2018-12-29T22:39:28.364Z,8.51
2018-12-29T22:41:56.673Z,8.55
2018-12-29T22:46:59.266Z,8.49
2018-12-29T22:49:27.580Z,8.46
2018-12-29T22:51:57.872Z,8.38
2018-12-29T22:54:26.177Z,8.40
2018-12-29T22:56:54.480Z,8.43
2018-12-29T22:59:23.088Z,8.43
2018-12-29T23:01:51.405Z,8.42
2018-12-29T23:04:19.687Z,8.42
2018-12-29T23:06:48.007Z,8.44
2018-12-29T23:09:18.018Z,8.40
2018-12-29T23:11:46.299Z,8.41
2018-12-29T23:14:14.604Z,8.40
2018-12-29T23:16:43.194Z,8.41
2018-12-29T23:19:11.868Z,8.41
2018-12-29T23:21:40.453Z,8.43
2018-12-29T23:24:10.477Z,8.46
2018-12-29T23:26:38.774Z,8.49
2018-12-29T23:29:09.072Z,8.49
2018-12-29T23:31:37.656Z,8.48
2018-12-29T23:34:05.957Z,8.50
2018-12-29T23:36:34.525Z,8.54
2018-12-29T23:39:02.893Z,8.50
2018-12-29T23:41:50.568Z,8.48
2018-12-29T23:44:18.866Z,8.50
2018-12-29T23:46:47.176Z,8.51
2018-12-29T23:49:15.485Z,8.50
2018-12-29T23:54:32.965Z,8.54
2018-12-29T23:57:01.260Z,8.48
2018-12-29T23:59:29.563Z,8.51
